createdAt,value
2023-03-11T00:00:16.224Z,0.50
2023-03-11T00:02:44.168Z,0.50
2023-03-11T00:05:15.250Z,0.40
2023-03-11T00:07:42.038Z,0.20
2023-03-11T00:10:12.349Z,0.20
2023-03-11T00:12:39.090Z,0.30
2023-03-11T00:15:06.317Z,0.20
2023-03-11T00:17:33.047Z,0.30
2023-03-11T00:19:59.762Z,0.10
2023-03-11T00:22:26.436Z,0.22
2023-03-11T00:24:53.154Z,0.20
2023-03-11T00:27:19.803Z,0.10
2023-03-11T00:29:46.720Z,0.17
2023-03-11T00:32:13.464Z,0.10
2023-03-11T00:34:40.303Z,0.20
2023-03-11T00:37:06.970Z,0.25
2023-03-11T00:39:34.213Z,0.20
2023-03-11T00:42:00.894Z,0.20
2023-03-11T00:44:27.585Z,0.00
2023-03-11T00:46:54.238Z,0.05
2023-03-11T00:49:20.988Z,0.10
2023-03-11T00:51:47.728Z,0.10
2023-03-11T00:54:14.789Z,0.10
2023-03-11T00:56:41.816Z,0.17
2023-03-11T00:59:08.502Z,0.15
2023-03-11T01:01:35.319Z,0.10
2023-03-11T01:04:02.207Z,0.20
2023-03-11T01:06:39.201Z,0.10
2023-03-11T01:09:11.617Z,0.20
2023-03-11T01:11:38.322Z,0.10
2023-03-11T01:14:05.120Z,0.20
2023-03-11T01:16:32.018Z,0.10
2023-03-11T01:18:58.841Z,0.10
2023-03-11T01:21:25.574Z,0.10
2023-03-11T01:23:52.321Z,0.00
2023-03-11T01:26:18.981Z,0.20
2023-03-11T01:28:45.691Z,0.20
2023-03-11T01:31:12.663Z,0.30
2023-03-11T01:33:39.894Z,0.10
2023-03-11T01:36:07.226Z,0.20
2023-03-11T01:38:33.981Z,0.20
2023-03-11T01:41:00.866Z,0.10
2023-03-11T01:43:45.969Z,0.22
2023-03-11T01:46:20.005Z,0.20
2023-03-11T01:48:52.061Z,0.20
2023-03-11T01:51:38.565Z,0.25
2023-03-11T01:54:08.069Z,0.20
2023-03-11T01:56:35.658Z,0.10
2023-03-11T01:59:02.526Z,0.20
2023-03-11T02:01:29.392Z,0.20
2023-03-11T02:03:56.906Z,0.30
2023-03-11T02:06:24.516Z,0.20
2023-03-11T02:08:51.372Z,0.30
2023-03-11T02:11:24.964Z,0.40
2023-03-11T02:13:52.705Z,0.32
2023-03-11T02:16:19.519Z,0.50
2023-03-11T02:18:46.494Z,0.70
2023-03-11T02:21:22.277Z,0.45
2023-03-11T02:24:05.202Z,0.37
2023-03-11T02:26:36.049Z,0.20
2023-03-11T02:29:04.220Z,0.30
2023-03-11T02:31:31.325Z,0.15
2023-03-11T02:34:00.282Z,0.10
2023-03-11T02:36:33.141Z,0.10
2023-03-11T02:38:59.878Z,0.10
2023-03-11T02:41:27.657Z,0.10
2023-03-11T02:43:54.772Z,0.10
2023-03-11T02:46:21.530Z,0.20
2023-03-11T02:48:48.707Z,0.20
2023-03-11T02:51:15.564Z,0.10
2023-03-11T02:53:47.936Z,0.10
2023-03-11T02:56:14.769Z,0.10
2023-03-11T02:58:41.549Z,0.00
2023-03-11T03:01:08.336Z,0.00
2023-03-11T03:03:35.058Z,0.08
2023-03-11T03:06:01.970Z,0.10
2023-03-11T03:08:28.629Z,0.10
2023-03-11T03:10:55.373Z,0.00
2023-03-11T03:13:22.125Z,0.40
2023-03-11T03:15:48.845Z,0.10
2023-03-11T03:18:15.479Z,1.38
2023-03-11T03:20:42.164Z,0.20
2023-03-11T03:23:08.898Z,0.38
2023-03-11T03:25:35.592Z,0.23
2023-03-11T03:28:02.323Z,0.20
2023-03-11T03:30:29.411Z,0.10
2023-03-11T03:32:56.370Z,0.20
2023-03-11T03:35:23.111Z,0.47
2023-03-11T03:37:49.823Z,0.30
2023-03-11T03:40:16.658Z,0.00
2023-03-11T03:42:43.449Z,0.00
2023-03-11T03:45:10.774Z,0.17
2023-03-11T03:47:37.543Z,0.10
2023-03-11T03:50:05.762Z,0.10
2023-03-11T03:52:32.636Z,0.10
2023-03-11T03:54:59.393Z,0.25
2023-03-11T03:57:26.131Z,0.10
2023-03-11T03:59:52.852Z,0.10
2023-03-11T04:02:19.581Z,0.03
2023-03-11T04:04:46.649Z,0.10
2023-03-11T04:07:13.818Z,0.10
2023-03-11T04:09:41.846Z,0.10
2023-03-11T04:12:13.580Z,0.15
2023-03-11T04:14:40.681Z,0.13
2023-03-11T04:17:07.567Z,0.22
2023-03-11T04:19:34.310Z,0.13
2023-03-11T04:22:00.968Z,0.10
2023-03-11T04:24:27.747Z,0.10
2023-03-11T04:26:54.432Z,0.07
2023-03-11T04:29:21.184Z,0.10
2023-03-11T04:31:47.950Z,0.17
2023-03-11T04:34:14.667Z,0.15
2023-03-11T04:36:41.536Z,0.10
2023-03-11T04:39:08.340Z,0.10
2023-03-11T04:41:35.146Z,0.13
2023-03-11T04:44:01.877Z,0.10
2023-03-11T04:46:28.649Z,0.00
2023-03-11T04:48:55.382Z,0.10
2023-03-11T04:51:22.155Z,0.00
2023-03-11T04:53:48.870Z,0.17
2023-03-11T04:56:15.640Z,0.00
2023-03-11T04:58:42.363Z,0.10
2023-03-11T05:01:09.103Z,0.20
2023-03-11T05:03:35.894Z,0.30
2023-03-11T05:06:02.752Z,1.05
2023-03-11T05:08:29.445Z,0.20
2023-03-11T05:10:56.174Z,0.40
2023-03-11T05:13:22.977Z,0.52
2023-03-11T05:15:49.698Z,0.20
2023-03-11T05:18:16.466Z,0.80
2023-03-11T05:20:43.244Z,0.40
2023-03-11T05:23:10.072Z,0.30
2023-03-11T05:25:36.860Z,0.50
2023-03-11T05:28:03.701Z,0.23
2023-03-11T05:30:30.441Z,0.10
2023-03-11T05:32:57.222Z,0.28
2023-03-11T05:35:24.134Z,0.20
2023-03-11T05:37:51.027Z,0.10
2023-03-11T05:40:18.303Z,0.20
2023-03-11T05:42:45.119Z,0.20
2023-03-11T05:45:11.995Z,0.20
2023-03-11T05:47:38.724Z,0.00
2023-03-11T05:50:06.048Z,0.10
2023-03-11T05:52:33.928Z,0.17
2023-03-11T05:55:00.918Z,0.10
2023-03-11T05:57:28.237Z,0.22
2023-03-11T05:59:55.029Z,0.10
2023-03-11T06:02:22.049Z,0.10
2023-03-11T06:04:49.137Z,0.13
2023-03-11T06:07:16.280Z,0.00
2023-03-11T06:09:43.052Z,0.13
2023-03-11T06:12:10.023Z,0.20
2023-03-11T06:14:38.596Z,0.00
2023-03-11T06:17:05.406Z,0.00
2023-03-11T06:19:32.197Z,0.00
2023-03-11T06:21:58.876Z,0.00
2023-03-11T06:24:25.656Z,0.10
2023-03-11T06:26:53.237Z,0.13
2023-03-11T06:29:20.045Z,0.10
2023-03-11T06:31:46.815Z,0.20
2023-03-11T06:34:13.594Z,0.10
2023-03-11T06:36:40.519Z,0.32
2023-03-11T06:39:07.496Z,0.00
2023-03-11T06:41:35.041Z,0.10
2023-03-11T06:44:01.871Z,0.10
2023-03-11T06:46:28.765Z,0.10
2023-03-11T06:48:55.523Z,0.10
2023-03-11T06:51:22.598Z,0.10
2023-03-11T06:53:51.815Z,0.10
2023-03-11T06:56:19.117Z,0.28
2023-03-11T06:58:46.628Z,0.10
2023-03-11T07:01:15.477Z,0.10
2023-03-11T07:03:42.896Z,0.10
2023-03-11T07:06:14.085Z,0.10
2023-03-11T07:08:42.305Z,0.10
2023-03-11T07:11:21.085Z,0.03
2023-03-11T07:13:47.961Z,0.20
2023-03-11T07:16:18.130Z,0.08
2023-03-11T07:18:46.415Z,0.03
2023-03-11T07:21:19.946Z,0.22
2023-03-11T07:23:47.667Z,0.17
2023-03-11T07:26:15.771Z,0.20
2023-03-11T07:28:42.554Z,0.38
2023-03-11T07:31:17.973Z,0.80
2023-03-11T07:33:45.650Z,0.10
2023-03-11T07:36:15.172Z,0.30
2023-03-11T07:38:42.445Z,0.22
2023-03-11T07:41:11.312Z,0.10
2023-03-11T07:43:38.554Z,0.13
2023-03-11T07:46:07.190Z,0.73
2023-03-11T07:48:34.720Z,0.13
2023-03-11T07:51:07.429Z,0.15
2023-03-11T07:53:34.558Z,0.03
2023-03-11T07:56:02.348Z,0.13
2023-03-11T07:58:29.459Z,0.20
2023-03-11T08:00:57.647Z,0.10
2023-03-11T08:03:25.081Z,0.30
2023-03-11T08:05:52.007Z,0.00
2023-03-11T08:08:18.756Z,0.10
2023-03-11T08:10:45.487Z,0.10
2023-03-11T08:13:12.222Z,0.10
2023-03-11T08:15:38.988Z,0.17
2023-03-11T08:18:05.760Z,0.10
2023-03-11T08:20:32.618Z,0.10
2023-03-11T08:22:59.416Z,0.28
2023-03-11T08:25:26.198Z,0.20
2023-03-11T08:27:52.964Z,0.40
2023-03-11T08:30:19.754Z,0.32
2023-03-11T08:32:46.582Z,0.40
2023-03-11T08:35:13.411Z,0.20
2023-03-11T08:37:40.312Z,0.10
2023-03-11T08:40:07.906Z,0.20
2023-03-11T08:42:37.041Z,0.32
2023-03-11T08:45:04.291Z,0.57
2023-03-11T08:47:35.227Z,0.47
2023-03-11T08:50:03.494Z,0.30
2023-03-11T08:52:30.290Z,0.40
2023-03-11T08:54:57.568Z,0.45
2023-03-11T08:57:24.318Z,0.70
2023-03-11T08:59:51.155Z,0.32
2023-03-11T09:02:17.907Z,0.40
2023-03-11T09:04:44.653Z,0.32
2023-03-11T09:07:11.891Z,0.20
2023-03-11T09:09:38.636Z,0.40
2023-03-11T09:12:07.832Z,0.50
2023-03-11T09:14:35.505Z,0.30
2023-03-11T09:17:02.309Z,0.20
2023-03-11T09:19:29.190Z,0.40
2023-03-11T09:21:55.966Z,0.33
2023-03-11T09:24:22.713Z,0.50
2023-03-11T09:26:49.402Z,0.22
2023-03-11T09:29:16.174Z,0.10
2023-03-11T09:31:43.029Z,0.25
2023-03-11T09:34:11.932Z,0.00
2023-03-11T09:36:41.522Z,0.10
2023-03-11T09:39:08.509Z,0.20
2023-03-11T09:41:57.498Z,0.30
2023-03-11T09:44:34.449Z,0.50
2023-03-11T09:47:26.135Z,0.23
2023-03-11T09:49:52.797Z,0.28
2023-03-11T09:52:29.190Z,0.20
2023-03-11T09:54:55.963Z,0.20
2023-03-11T09:57:27.206Z,0.30
2023-03-11T09:59:55.004Z,0.20
2023-03-11T10:02:26.721Z,0.10
2023-03-11T10:04:56.331Z,0.10
2023-03-11T10:07:28.147Z,0.30
2023-03-11T10:09:56.961Z,0.40
2023-03-11T10:12:41.824Z,0.30
2023-03-11T10:15:14.487Z,0.20
2023-03-11T10:18:05.165Z,0.35
2023-03-11T10:20:43.224Z,0.30
2023-03-11T10:23:33.578Z,0.50
2023-03-11T10:26:28.018Z,0.40
2023-03-11T10:29:00.502Z,0.38
2023-03-11T10:31:31.707Z,0.60
2023-03-11T10:34:18.677Z,0.38
2023-03-11T10:36:59.881Z,0.60
2023-03-11T10:39:26.981Z,0.40
2023-03-11T10:41:56.229Z,0.55
2023-03-11T10:44:28.650Z,0.40
2023-03-11T10:46:55.430Z,0.50
2023-03-11T10:49:22.277Z,0.80
2023-03-11T10:51:51.059Z,0.60
2023-03-11T10:54:34.131Z,0.60
2023-03-11T10:57:03.322Z,0.55
2023-03-11T10:59:33.843Z,0.60
2023-03-11T11:02:23.075Z,0.88
2023-03-11T11:05:07.023Z,0.90
2023-03-11T11:07:36.504Z,1.00
2023-03-11T11:10:12.096Z,1.23
2023-03-11T11:13:02.057Z,0.70
2023-03-11T11:15:37.027Z,1.10
2023-03-11T11:18:06.901Z,1.00
2023-03-11T11:20:33.919Z,1.05
2023-03-11T11:23:02.474Z,0.80
2023-03-11T11:25:38.199Z,0.82
2023-03-11T11:28:17.806Z,1.10
2023-03-11T11:31:06.452Z,0.50
2023-03-11T11:33:41.375Z,0.80
2023-03-11T11:36:14.470Z,0.60
2023-03-11T11:38:41.176Z,0.70
2023-03-11T11:41:10.057Z,0.82
2023-03-11T11:43:56.838Z,1.13
2023-03-11T11:46:42.639Z,1.05
2023-03-11T11:49:25.810Z,0.80
2023-03-11T11:52:18.559Z,0.88
2023-03-11T11:54:51.130Z,0.70
2023-03-11T11:57:20.335Z,0.70
2023-03-11T11:59:47.575Z,0.50
2023-03-11T12:02:23.708Z,0.77
2023-03-11T12:04:56.067Z,0.73
2023-03-11T12:07:50.623Z,1.10
2023-03-11T12:10:50.530Z,0.83
2023-03-11T12:13:35.734Z,0.80
2023-03-11T12:16:40.482Z,1.05
2023-03-11T12:19:28.852Z,1.42
2023-03-11T12:22:15.821Z,1.42
2023-03-11T12:24:42.412Z,1.70
2023-03-11T12:27:15.511Z,1.60
2023-03-11T12:29:44.519Z,1.15
2023-03-11T12:32:23.949Z,1.50
2023-03-11T12:34:50.717Z,1.20
2023-03-11T12:37:19.545Z,1.70
2023-03-11T12:39:46.262Z,1.42
2023-03-11T12:42:25.218Z,1.50
2023-03-11T12:44:53.833Z,0.80
2023-03-11T12:47:25.656Z,0.80
2023-03-11T12:49:55.130Z,1.30
2023-03-11T12:52:24.678Z,1.42
2023-03-11T12:54:57.165Z,1.48
2023-03-11T12:58:01.476Z,1.65
2023-03-11T13:00:58.085Z,2.08
2023-03-11T13:03:49.105Z,1.90
2023-03-11T13:06:21.895Z,1.65
2023-03-11T13:08:54.687Z,1.80
2023-03-11T13:11:33.550Z,1.88
2023-03-11T13:14:11.929Z,2.70
2023-03-11T13:16:39.696Z,1.97
2023-03-11T13:19:32.061Z,2.00
2023-03-11T13:21:59.988Z,1.75
2023-03-11T13:24:26.971Z,1.20
2023-03-11T13:26:59.703Z,1.23
2023-03-11T13:30:04.044Z,1.40
2023-03-11T13:32:52.661Z,1.08
2023-03-11T13:35:50.277Z,0.90
2023-03-11T13:38:58.576Z,1.35
2023-03-11T13:41:36.514Z,1.17
2023-03-11T13:44:20.174Z,1.20
2023-03-11T13:46:53.141Z,1.10
2023-03-11T13:49:25.942Z,1.38
2023-03-11T13:51:54.058Z,1.35
2023-03-11T13:54:38.591Z,1.00
2023-03-11T13:57:05.472Z,0.77
2023-03-11T13:59:35.005Z,1.23
2023-03-11T14:02:07.095Z,0.90
2023-03-11T14:04:36.104Z,1.60
2023-03-11T14:07:38.450Z,1.70
2023-03-11T14:10:30.082Z,1.40
2023-03-11T14:13:32.746Z,1.80
2023-03-11T14:16:05.306Z,1.10
2023-03-11T14:18:32.017Z,1.35
2023-03-11T14:20:59.135Z,1.10
2023-03-11T14:23:33.280Z,1.10
2023-03-11T14:26:05.443Z,1.05
2023-03-11T14:28:35.424Z,0.90
2023-03-11T14:31:02.817Z,1.40
2023-03-11T14:33:29.803Z,0.93
2023-03-11T14:35:59.664Z,1.40
2023-03-11T14:38:29.043Z,1.50
2023-03-11T14:41:00.688Z,1.60
2023-03-11T14:43:34.697Z,1.10
2023-03-11T14:46:02.553Z,1.40
2023-03-11T14:48:36.732Z,2.03
2023-03-11T14:51:04.495Z,1.10
2023-03-11T14:53:39.670Z,1.20
2023-03-11T14:56:14.463Z,1.17
2023-03-11T14:58:43.726Z,1.38
2023-03-11T15:01:14.376Z,1.10
2023-03-11T15:03:56.730Z,0.90
2023-03-11T15:06:28.432Z,0.90
2023-03-11T15:09:00.911Z,1.00
2023-03-11T15:11:28.524Z,0.70
2023-03-11T15:14:25.517Z,1.00
2023-03-11T15:16:54.326Z,1.00
2023-03-11T15:19:33.221Z,1.55
2023-03-11T15:22:21.558Z,1.13
2023-03-11T15:24:53.145Z,0.90
2023-03-11T15:27:31.033Z,0.90
2023-03-11T15:29:58.462Z,1.10
2023-03-11T15:32:45.682Z,1.00
2023-03-11T15:35:19.835Z,0.80
2023-03-11T15:37:47.791Z,1.20
2023-03-11T15:40:42.375Z,1.00
2023-03-11T15:43:16.678Z,1.02
2023-03-11T15:45:44.104Z,1.20
2023-03-11T15:48:11.884Z,0.90
2023-03-11T15:50:53.395Z,0.90
2023-03-11T15:53:21.728Z,0.80
2023-03-11T15:55:48.872Z,0.88
2023-03-11T15:58:18.236Z,1.10
2023-03-11T16:00:50.644Z,1.00
2023-03-11T16:03:18.200Z,0.82
2023-03-11T16:05:45.041Z,0.83
2023-03-11T16:08:12.045Z,1.02
2023-03-11T16:10:39.293Z,0.65
2023-03-11T16:13:06.226Z,0.57
2023-03-11T16:15:37.861Z,0.45
2023-03-11T16:18:07.437Z,0.60
2023-03-11T16:20:40.890Z,0.75
2023-03-11T16:23:10.987Z,0.57
2023-03-11T16:25:39.424Z,0.50
2023-03-11T16:28:07.057Z,0.80
2023-03-11T16:30:34.855Z,0.53
2023-03-11T16:33:04.305Z,0.60
2023-03-11T16:35:32.067Z,0.30
2023-03-11T16:37:58.882Z,0.70
2023-03-11T16:40:28.384Z,0.70
2023-03-11T16:43:01.408Z,0.67
2023-03-11T16:45:28.608Z,0.40
2023-03-11T16:47:55.388Z,0.60
2023-03-11T16:50:24.275Z,0.60
2023-03-11T16:52:51.920Z,0.68
2023-03-11T16:55:18.911Z,1.07
2023-03-11T16:57:45.825Z,0.75
2023-03-11T17:00:14.802Z,0.60
2023-03-11T17:02:41.686Z,0.98
2023-03-11T17:05:09.284Z,0.55
2023-03-11T17:07:39.191Z,0.50
2023-03-11T17:10:07.124Z,0.95
2023-03-11T17:12:33.877Z,0.98
2023-03-11T17:15:00.681Z,0.85
2023-03-11T17:17:27.416Z,1.05
2023-03-11T17:19:54.125Z,0.80
2023-03-11T17:22:20.797Z,0.98
2023-03-11T17:24:47.471Z,0.90
2023-03-11T17:27:14.182Z,1.20
2023-03-11T17:29:40.922Z,0.85
2023-03-11T17:32:07.940Z,1.10
2023-03-11T17:34:34.673Z,1.00
2023-03-11T17:37:01.730Z,1.20
2023-03-11T17:39:28.471Z,1.08
2023-03-11T17:41:55.205Z,1.20
2023-03-11T17:44:21.921Z,1.20
2023-03-11T17:46:48.742Z,1.00
2023-03-11T17:49:15.600Z,1.45
2023-03-11T17:51:42.381Z,0.80
2023-03-11T17:54:10.073Z,1.00
2023-03-11T17:56:36.741Z,1.20
2023-03-11T17:59:03.564Z,1.10
2023-03-11T18:01:30.428Z,1.25
2023-03-11T18:03:57.300Z,1.20
2023-03-11T18:06:24.377Z,1.33
2023-03-11T18:08:51.157Z,1.43
2023-03-11T18:11:20.742Z,1.20
2023-03-11T18:13:47.538Z,1.40
2023-03-11T18:16:21.310Z,1.40
2023-03-11T18:18:48.683Z,1.60
2023-03-11T18:21:21.175Z,1.23
2023-03-11T18:23:48.366Z,0.85
2023-03-11T18:26:16.988Z,1.48
2023-03-11T18:28:44.068Z,1.30
2023-03-11T18:31:13.305Z,1.25
2023-03-11T18:33:40.444Z,1.23
2023-03-11T18:36:19.306Z,0.80
2023-03-11T18:38:46.572Z,1.20
2023-03-11T18:41:13.424Z,0.98
2023-03-11T18:43:40.258Z,1.20
2023-03-11T18:46:09.229Z,1.10
2023-03-11T18:48:36.166Z,1.02
2023-03-11T18:51:03.035Z,1.00
2023-03-11T18:53:29.796Z,1.33
2023-03-11T18:56:01.479Z,1.35
2023-03-11T18:58:28.745Z,1.00
2023-03-11T19:00:55.812Z,1.30
2023-03-11T19:03:22.588Z,1.15
2023-03-11T19:05:50.913Z,1.27
2023-03-11T19:08:17.669Z,1.25
2023-03-11T19:10:44.566Z,1.03
2023-03-11T19:13:11.245Z,1.10
2023-03-11T19:15:41.509Z,0.95
2023-03-11T19:18:09.044Z,1.10
2023-03-11T19:20:35.766Z,1.20
2023-03-11T19:23:02.645Z,1.17
2023-03-11T19:25:30.240Z,1.20
2023-03-11T19:27:57.059Z,1.40
2023-03-11T19:30:24.053Z,1.23
2023-03-11T19:32:53.710Z,1.13
2023-03-11T19:35:21.383Z,1.30
2023-03-11T19:37:48.777Z,1.50
2023-03-11T19:40:16.752Z,1.52
2023-03-11T19:42:43.707Z,1.63
2023-03-11T19:45:10.888Z,1.27
2023-03-11T19:47:38.087Z,1.40
2023-03-11T19:50:05.392Z,1.48
2023-03-11T19:52:32.148Z,2.20
2023-03-11T19:54:59.029Z,1.60
2023-03-11T19:57:25.768Z,1.67
2023-03-11T19:59:52.526Z,1.60
2023-03-11T20:02:20.367Z,1.15
2023-03-11T20:04:47.205Z,1.88
2023-03-11T20:07:14.037Z,1.80
2023-03-11T20:09:40.803Z,1.70
2023-03-11T20:12:07.773Z,1.90
2023-03-11T20:14:34.492Z,1.77
2023-03-11T20:17:01.244Z,1.70
2023-03-11T20:19:28.002Z,1.88
2023-03-11T20:21:54.705Z,1.50
2023-03-11T20:24:21.500Z,1.77
2023-03-11T20:26:50.763Z,1.60
2023-03-11T20:29:18.180Z,1.33
2023-03-11T20:31:45.086Z,1.73
2023-03-11T20:34:12.597Z,1.35
2023-03-11T20:36:39.675Z,1.50
2023-03-11T20:39:09.925Z,1.63
2023-03-11T20:41:38.942Z,1.65
2023-03-11T20:44:07.254Z,1.30
2023-03-11T20:46:34.196Z,1.45
2023-03-11T20:49:01.926Z,1.27
2023-03-11T20:51:28.742Z,1.17
2023-03-11T20:53:55.581Z,1.27
2023-03-11T20:56:24.409Z,1.58
2023-03-11T20:58:52.179Z,1.30
2023-03-11T21:01:21.563Z,1.53
2023-03-11T21:03:48.794Z,1.40
2023-03-11T21:06:20.630Z,1.20
2023-03-11T21:08:48.266Z,1.15
2023-03-11T21:11:15.608Z,1.30
2023-03-11T21:13:42.632Z,1.23
2023-03-11T21:16:09.694Z,1.88
2023-03-11T21:18:36.930Z,1.58
2023-03-11T21:21:04.258Z,1.63
2023-03-11T21:23:31.165Z,1.30
2023-03-11T21:25:59.222Z,1.43
2023-03-11T21:28:26.664Z,1.27
2023-03-11T21:31:06.230Z,0.95
2023-03-11T21:33:33.111Z,1.23
2023-03-11T21:36:00.782Z,1.33
2023-03-11T21:38:28.354Z,1.40
2023-03-11T21:41:05.121Z,1.27
2023-03-11T21:43:31.934Z,1.30
2023-03-11T21:45:58.690Z,1.20
2023-03-11T21:48:25.686Z,1.30
2023-03-11T21:50:52.695Z,0.87
2023-03-11T21:53:19.490Z,1.38
2023-03-11T21:55:47.282Z,1.33
2023-03-11T21:58:14.963Z,1.20
2023-03-11T22:00:41.979Z,1.50
2023-03-11T22:03:08.986Z,1.00
2023-03-11T22:05:35.761Z,0.68
2023-03-11T22:08:02.719Z,1.08
2023-03-11T22:10:31.095Z,1.30
2023-03-11T22:12:58.119Z,1.17
2023-03-11T22:15:25.225Z,1.20
2023-03-11T22:17:51.941Z,0.70
2023-03-11T22:20:18.721Z,1.15
2023-03-11T22:22:45.439Z,1.20
2023-03-11T22:25:12.271Z,1.40
2023-03-11T22:27:40.288Z,1.03
2023-03-11T22:30:08.422Z,1.05
2023-03-11T22:32:35.225Z,0.93
2023-03-11T22:35:02.004Z,0.70
2023-03-11T22:37:28.820Z,1.10
2023-03-11T22:39:55.506Z,0.70
2023-03-11T22:42:22.245Z,1.00
2023-03-11T22:44:49.054Z,1.10
2023-03-11T22:47:16.070Z,0.90
2023-03-11T22:49:42.882Z,0.88
2023-03-11T22:52:09.593Z,1.00
2023-03-11T22:54:37.423Z,1.08
2023-03-11T22:57:04.361Z,1.30
2023-03-11T22:59:31.081Z,1.20
2023-03-11T23:01:58.014Z,1.30
2023-03-11T23:04:24.821Z,1.40
2023-03-11T23:06:54.355Z,1.20
2023-03-11T23:09:24.673Z,1.30
2023-03-11T23:11:52.344Z,1.50
2023-03-11T23:14:23.727Z,1.40
2023-03-11T23:16:54.835Z,1.10
2023-03-11T23:19:21.570Z,1.40
2023-03-11T23:21:48.427Z,1.23
2023-03-11T23:24:15.138Z,1.58
2023-03-11T23:26:41.874Z,1.20
2023-03-11T23:29:08.614Z,1.30
2023-03-11T23:31:36.391Z,1.50
2023-03-11T23:34:03.178Z,1.38
2023-03-11T23:36:31.353Z,1.50
2023-03-11T23:38:58.519Z,1.67
2023-03-11T23:41:25.408Z,1.50
2023-03-11T23:43:52.413Z,1.25
2023-03-11T23:46:19.277Z,1.60
2023-03-11T23:48:46.083Z,1.13
2023-03-11T23:51:12.873Z,1.50
2023-03-11T23:53:40.357Z,1.13
2023-03-11T23:56:12.889Z,1.42
2023-03-11T23:58:39.766Z,1.40
